Time;durP1;ratioP1;P1;durP2;ratioP2;P2;SDS_P1;SDS_P2;PMS_P1;PMS_P2;Temp;Humidity;BMP_temperature;BMP_pressure;BME280_temperature;BME280_humidity;BME280_pressure;Samples;Min_cycle;Max_cycle;Signal;HPM_P1;HPM_P2
2022/04/25 00:00:07;;;;;;;14.47;7.20;;;;;;;-145.18;100.00;46552.97;4999449;28;20337;-71
2022/04/25 00:02:32;;;;;;;16.30;7.47;;;;;;;-145.18;100.00;46551.00;4991701;28;20049;-71
2022/04/25 00:04:58;;;;;;;19.30;7.23;;;;;;;-145.18;100.00;46551.00;4998889;28;20792;-71
2022/04/25 00:07:23;;;;;;;13.23;8.13;;;;;;;-145.18;100.00;46551.00;4996427;28;20240;-71
2022/04/25 00:09:49;;;;;;;15.50;7.90;;;;;;;-145.18;100.00;46552.97;5001544;28;20037;-71
2022/04/25 00:12:14;;;;;;;13.43;7.83;;;;;;;-145.18;100.00;46554.91;4993158;28;20833;-71
2022/04/25 00:14:40;;;;;;;18.00;7.80;;;;;;;-145.18;100.00;46552.97;4998771;28;20026;-71
2022/04/25 00:17:08;;;;;;;14.17;7.07;;;;;;;-145.18;100.00;46560.78;4980649;28;20041;-71
2022/04/25 00:19:35;;;;;;;28.57;8.93;;;;;;;-145.18;100.00;46562.72;5000186;28;20035;-71
2022/04/25 00:22:01;;;;;;;13.77;7.77;;;;;;;-145.18;100.00;46556.88;4995613;28;20393;-71
2022/04/25 00:24:26;;;;;;;15.43;8.00;;;;;;;-145.18;100.00;46570.53;4997860;28;20397;-71
2022/04/25 00:26:52;;;;;;;17.03;7.77;;;;;;;-145.18;100.00;46566.63;4997893;28;20033;-72
2022/04/25 00:29:17;;;;;;;16.60;8.00;;;;;;;-145.18;100.00;46613.50;5001728;28;20124;-71
2022/04/25 00:31:42;;;;;;;15.50;8.70;;;;;;;-145.18;100.00;46615.47;4992733;28;20045;-72
2022/04/25 00:34:08;;;;;;;16.83;8.70;;;;;;;-145.18;100.00;46621.31;4997581;28;20054;-71
2022/04/25 00:36:33;;;;;;;16.53;9.37;;;;;;;-145.18;100.00;46621.31;4994208;28;20095;-71
2022/04/25 00:38:59;;;;;;;19.33;8.97;;;;;;;-145.18;100.00;46625.22;4999764;28;20781;-72
2022/04/25 00:41:24;;;;;;;16.93;8.67;;;;;;;-145.18;100.00;46623.28;4995481;28;20045;-71
2022/04/25 00:43:58;;;;;;;21.40;8.03;;;;;;;-145.18;100.00;46625.22;4994884;28;20042;-71
2022/04/25 00:46:26;;;;;;;13.90;9.30;;;;;;;-145.18;100.00;46636.94;4992424;28;20788;-71
2022/04/25 00:49:06;;;;;;;18.07;9.07;;;;;;;-145.18;100.00;46636.94;4992894;28;20275;-71
2022/04/25 00:51:32;;;;;;;16.23;8.77;;;;;;;-145.18;100.00;46635.00;4999394;28;20267;-71
2022/04/25 00:53:58;;;;;;;16.40;9.27;;;;;;;-145.18;100.00;46636.94;4995764;28;20279;-71
2022/04/25 00:56:25;;;;;;;13.10;8.30;;;;;;;-145.18;100.00;46638.91;4994704;28;20854;-71
2022/04/25 00:58:51;;;;;;;15.07;8.67;;;;;;;-145.18;100.00;46638.91;4992839;28;20056;-71
2022/04/25 01:01:16;;;;;;;21.47;10.20;;;;;;;-145.18;100.00;46635.00;4994740;28;20700;-71
2022/04/25 01:03:42;;;;;;;17.20;9.07;;;;;;;-145.18;100.00;46640.88;4998845;28;20302;-71
2022/04/25 01:06:07;;;;;;;14.73;8.80;;;;;;;-145.18;100.00;46652.59;4999456;28;20652;-71
2022/04/25 01:08:34;;;;;;;20.77;9.37;;;;;;;-145.18;100.00;46640.88;4997201;28;20121;-72
2022/04/25 01:11:02;;;;;;;16.83;9.40;;;;;;;-145.18;100.00;46640.88;4995674;28;20113;-72
2022/04/25 01:13:28;;;;;;;19.57;9.93;;;;;;;-145.18;100.00;46638.91;4997233;28;20331;-71
2022/04/25 01:15:53;;;;;;;18.77;9.40;;;;;;;-145.18;100.00;46650.63;4995505;23;20383;-71
2022/04/25 01:18:19;;;;;;;18.93;9.13;;;;;;;-145.18;100.00;46658.44;4957378;28;20035;-72
2022/04/25 01:20:44;;;;;;;17.90;9.00;;;;;;;-145.18;100.00;46656.50;4960876;28;20188;-71
2022/04/25 01:28:49;;;;;;;23.83;9.87;;;;;;;-145.18;100.00;46660.41;4964609;28;20655;-71
2022/04/25 01:31:14;;;;;;;17.10;8.97;;;;;;;-145.18;100.00;46660.41;4984838;23;20359;-69
2022/04/25 01:33:39;;;;;;;13.43;8.97;;;;;;;-145.18;100.00;46658.44;4980628;28;20271;-69
2022/04/25 01:36:05;;;;;;;15.50;9.30;;;;;;;-145.18;100.00;46652.59;4979938;28;20479;-69
2022/04/25 01:38:30;;;;;;;16.73;9.20;;;;;;;-145.18;100.00;46654.53;4979523;28;20033;-69
2022/04/25 01:40:57;;;;;;;18.57;9.77;;;;;;;-145.18;100.00;46658.44;4979238;28;20018;-69
2022/04/25 01:43:22;;;;;;;20.97;9.73;;;;;;;-145.18;100.00;46656.50;4976455;28;20033;-70
2022/04/25 01:45:48;;;;;;;19.37;10.07;;;;;;;-145.18;100.00;46660.41;4983384;28;20268;-70
2022/04/25 01:48:13;;;;;;;16.63;9.23;;;;;;;-145.18;100.00;46660.41;4978363;28;20443;-70
2022/04/25 01:50:38;;;;;;;19.77;9.67;;;;;;;-145.18;100.00;46660.41;4975860;28;20130;-70
2022/04/25 01:53:04;;;;;;;18.40;9.63;;;;;;;-145.18;100.00;46660.41;4979779;28;20933;-70
2022/04/25 01:55:29;;;;;;;20.73;9.70;;;;;;;-145.18;100.00;46660.41;4979154;28;20030;-70
2022/04/25 01:57:55;;;;;;;21.37;10.47;;;;;;;-145.18;100.00;46640.88;4977975;28;20039;-70
2022/04/25 02:00:21;;;;;;;20.30;9.87;;;;;;;-145.18;100.00;46640.88;4978591;28;20061;-70
2022/04/25 02:02:46;;;;;;;18.37;9.83;;;;;;;-145.18;100.00;46636.94;5249954;23;20062;-71
2022/04/25 02:05:12;;;;;;;20.73;10.03;;;;;;;-145.18;100.00;46640.88;4961520;28;20042;-70
2022/04/25 02:07:37;;;;;;;19.33;9.37;;;;;;;-145.18;100.00;46676.03;4939910;28;20949;-71
2022/04/25 02:10:03;;;;;;;18.57;10.23;;;;;;;-145.18;100.00;46660.41;4957624;28;20350;-71
2022/04/25 02:12:28;;;;;;;18.30;9.83;;;;;;;-145.18;100.00;46660.41;4961100;28;20389;-71
2022/04/25 02:14:55;;;;;;;20.10;11.20;;;;;;;-145.18;100.00;46660.41;4955423;28;20118;-71
2022/04/25 02:17:20;;;;;;;18.63;10.57;;;;;;;-145.18;100.00;46660.41;4974086;28;20054;-71
2022/04/25 02:19:45;;;;;;;18.03;9.87;;;;;;;-145.18;100.00;46650.63;4961599;28;20273;-69
2022/04/25 02:22:12;;;;;;;22.17;10.53;;;;;;;-145.18;100.00;46652.59;4955219;28;20089;-71
2022/04/25 02:24:38;;;;;;;15.80;9.87;;;;;;;-145.18;100.00;46638.91;4963079;28;20034;-69
2022/04/25 02:27:05;;;;;;;18.20;10.20;;;;;;;-145.18;100.00;46636.94;4960541;28;20272;-69
2022/04/25 02:29:38;;;;;;;18.67;9.97;;;;;;;-145.18;100.00;46635.00;4957048;28;20280;-69
2022/04/25 02:32:04;;;;;;;19.40;10.10;;;;;;;-145.18;100.00;46636.94;4955231;28;20276;-71
2022/04/25 02:34:31;;;;;;;21.80;10.57;;;;;;;-145.18;100.00;46638.91;4967973;28;20839;-69
2022/04/25 02:36:57;;;;;;;20.80;10.30;;;;;;;-145.18;100.00;46652.59;4957787;28;20042;-69
2022/04/25 02:39:23;;;;;;;19.83;9.83;;;;;;;-145.18;100.00;46652.59;4958822;28;21143;-72
2022/04/25 02:41:49;;;;;;;20.50;11.17;;;;;;;-145.18;100.00;46660.41;4958688;28;20048;-72
2022/04/25 02:44:15;;;;;;;17.53;9.63;;;;;;;-145.18;100.00;46660.41;4939225;28;20305;-69
2022/04/25 02:46:40;;;;;;;18.83;11.07;;;;;;;-145.18;100.00;46640.88;4956509;28;20648;-72
2022/04/25 02:49:06;;;;;;;20.70;10.20;;;;;;;-145.18;100.00;46644.78;4965783;28;20050;-72
2022/04/25 02:51:31;;;;;;;18.93;10.13;;;;;;;-145.18;100.00;46646.72;4962544;28;20109;-72
2022/04/25 02:53:57;;;;;;;17.13;10.17;;;;;;;-145.18;100.00;46648.69;4960588;28;20173;-69
2022/04/25 02:56:22;;;;;;;17.60;10.53;;;;;;;-145.18;100.00;46654.53;4964435;28;20038;-69
2022/04/25 02:58:47;;;;;;;18.97;11.13;;;;;;;-145.18;100.00;46654.53;4958393;28;20066;-72
2022/04/25 03:01:13;;;;;;;19.97;11.43;;;;;;;-145.18;100.00;46654.53;4952876;28;20042;-69
2022/04/25 03:03:38;;;;;;;22.43;12.30;;;;;;;-145.18;100.00;46664.31;4960233;28;20065;-69
2022/04/25 03:06:06;;;;;;;22.67;12.60;;;;;;;-145.18;100.00;46660.41;4960695;28;20046;-69
2022/04/25 03:08:33;;;;;;;17.40;11.10;;;;;;;-145.18;100.00;46662.34;4959489;28;20068;-72
2022/04/25 03:10:58;;;;;;;25.07;10.90;;;;;;;-145.18;100.00;46668.22;5007281;23;20574;-71
2022/04/25 03:13:24;;;;;;;23.03;12.47;;;;;;;-145.18;100.00;46668.22;4979605;28;20354;-71
2022/04/25 03:15:51;;;;;;;19.07;10.40;;;;;;;-145.18;100.00;46666.25;4976905;28;20038;-71
2022/04/25 03:18:20;;;;;;;23.07;11.30;;;;;;;-145.18;100.00;46668.22;4979256;28;20361;-71
2022/04/25 03:20:48;;;;;;;21.50;11.60;;;;;;;-145.18;100.00;46666.25;4975646;28;20992;-71
2022/04/25 03:23:14;;;;;;;22.17;11.43;;;;;;;-145.18;100.00;46670.16;4978441;28;20283;-71
2022/04/25 03:25:40;;;;;;;18.93;11.13;;;;;;;-145.18;100.00;46681.88;4983913;28;20272;-70
2022/04/25 03:28:06;;;;;;;22.10;11.97;;;;;;;-145.18;100.00;46676.03;5013608;23;20818;-71
2022/04/25 03:30:32;;;;;;;21.93;11.93;;;;;;;-145.18;100.00;46677.97;4973922;28;20490;-71
2022/04/25 03:32:58;;;;;;;17.80;11.80;;;;;;;-145.18;100.00;46672.13;4979717;28;20521;-71
2022/04/25 03:35:24;;;;;;;24.00;12.40;;;;;;;-145.18;100.00;46677.97;4975745;28;20426;-71
2022/04/25 03:37:51;;;;;;;21.10;11.67;;;;;;;-145.18;100.00;46676.03;4977653;28;21356;-70
2022/04/25 03:40:17;;;;;;;20.77;11.93;;;;;;;-145.18;100.00;46674.06;4977999;28;20580;-71
2022/04/25 03:42:46;;;;;;;26.63;12.37;;;;;;;-145.18;100.00;46672.13;4989698;28;20763;-71
2022/04/25 03:45:16;;;;;;;24.73;12.17;;;;;;;-145.18;100.00;46676.03;4975381;28;20559;-71
2022/04/25 03:47:42;;;;;;;20.33;12.07;;;;;;;-145.18;100.00;46674.06;4978846;28;20316;-71
2022/04/25 03:50:08;;;;;;;19.60;12.50;;;;;;;-145.18;100.00;46670.16;4980423;28;20276;-71
2022/04/25 03:52:35;;;;;;;24.03;11.87;;;;;;;-145.18;100.00;46674.06;4975301;28;20287;-71
2022/04/25 03:57:48;;;;;;;32.30;12.70;;;;;;;-145.18;100.00;46677.97;4976008;28;20263;-70
2022/04/25 04:00:13;;;;;;;18.53;11.03;;;;;;;-145.18;100.00;46672.13;4976650;28;20272;-69
2022/04/25 04:02:39;;;;;;;24.50;13.50;;;;;;;-145.18;100.00;46672.13;4972992;28;20065;-70
2022/04/25 04:05:05;;;;;;;22.43;12.70;;;;;;;-145.18;100.00;46679.94;4977682;28;20042;-70
2022/04/25 04:07:31;;;;;;;27.00;12.77;;;;;;;-145.18;100.00;46674.06;4977793;28;20037;-70
2022/04/25 04:09:57;;;;;;;22.10;12.90;;;;;;;-145.18;100.00;46674.06;4975118;28;20815;-70
2022/04/25 04:12:28;;;;;;;25.73;13.30;;;;;;;-145.18;100.00;46668.22;4980815;28;20370;-69
2022/04/25 04:14:53;;;;;;;18.87;11.30;;;;;;;-145.18;100.00;46672.13;4972827;28;20092;-70
2022/04/25 04:17:18;;;;;;;25.60;13.17;;;;;;;-145.18;100.00;46672.13;4972454;28;21016;-70
2022/04/25 04:19:46;;;;;;;28.40;13.60;;;;;;;-145.18;100.00;46672.13;4979016;28;20030;-71
2022/04/25 04:22:11;;;;;;;22.73;13.47;;;;;;;-145.18;100.00;46672.13;4977297;28;20034;-70
2022/04/25 04:24:36;;;;;;;25.60;12.53;;;;;;;-145.18;100.00;46676.03;4951498;28;20310;-70
2022/04/25 04:27:04;;;;;;;22.37;13.03;;;;;;;-145.18;100.00;46677.97;4971567;28;20422;-70
2022/04/25 04:29:31;;;;;;;23.23;13.10;;;;;;;-145.18;100.00;46674.06;4968030;28;20042;-70
2022/04/25 04:32:01;;;;;;;21.60;12.70;;;;;;;-145.18;100.00;46676.03;4972477;28;20287;-70
2022/04/25 04:34:28;;;;;;;21.83;12.90;;;;;;;-145.18;100.00;46676.03;4973502;28;20301;-71
2022/04/25 04:36:53;;;;;;;25.50;13.13;;;;;;;-145.18;100.00;46668.22;4974101;28;20267;-70
2022/04/25 04:39:20;;;;;;;24.30;13.57;;;;;;;-145.18;100.00;46670.16;4972695;28;20721;-71
2022/04/25 04:41:45;;;;;;;21.43;13.63;;;;;;;-145.18;100.00;46676.03;4976100;28;20034;-70
2022/04/25 04:44:11;;;;;;;23.53;13.43;;;;;;;-145.18;100.00;46674.06;4970399;28;20416;-71
2022/04/25 04:46:36;;;;;;;22.87;12.70;;;;;;;-145.18;100.00;46668.22;4975049;28;20372;-70
2022/04/25 04:49:02;;;;;;;23.10;13.30;;;;;;;-145.18;100.00;46677.97;4971926;28;20034;-71
2022/04/25 04:51:27;;;;;;;33.47;14.00;;;;;;;-145.18;100.00;46672.13;4971488;28;20605;-70
2022/04/25 04:53:53;;;;;;;22.70;12.50;;;;;;;-145.18;100.00;46672.13;4974573;28;20450;-71
2022/04/25 04:56:18;;;;;;;28.27;13.20;;;;;;;-145.18;100.00;46676.03;4977575;28;20273;-70
2022/04/25 04:58:45;;;;;;;27.03;14.53;;;;;;;-145.18;100.00;46674.06;4977020;28;20014;-70
2022/04/25 05:01:11;;;;;;;23.03;14.10;;;;;;;-145.18;100.00;46668.22;4979705;28;20038;-70
2022/04/25 05:03:36;;;;;;;28.60;13.33;;;;;;;-145.18;100.00;46676.03;4980768;28;20360;-71
2022/04/25 05:06:02;;;;;;;23.67;13.97;;;;;;;-145.18;100.00;46674.06;4977571;28;20045;-70
2022/04/25 05:08:27;;;;;;;26.17;12.73;;;;;;;-145.18;100.00;46679.94;4971122;28;20763;-70
2022/04/25 05:10:55;;;;;;;23.60;12.70;;;;;;;-145.18;100.00;46677.97;4974486;28;20057;-70
2022/04/25 05:13:20;;;;;;;24.00;13.07;;;;;;;-145.18;100.00;46672.13;4979259;28;20498;-71
2022/04/25 05:15:47;;;;;;;26.70;13.37;;;;;;;-145.18;100.00;46681.88;4977511;28;20292;-70
2022/04/25 05:18:12;;;;;;;23.47;13.83;;;;;;;-145.18;100.00;46672.13;4961074;28;20026;-70
2022/04/25 05:20:38;;;;;;;26.00;13.80;;;;;;;-145.18;100.00;46668.22;4981431;28;20271;-70
2022/04/25 05:23:04;;;;;;;29.20;14.27;;;;;;;-145.18;100.00;46670.16;4981393;28;20169;-70
2022/04/25 05:25:29;;;;;;;25.17;14.23;;;;;;;-145.18;100.00;46666.25;4976652;28;20156;-71
2022/04/25 05:27:56;;;;;;;22.27;13.73;;;;;;;-145.18;100.00;46664.31;4984514;28;20521;-70
2022/04/25 05:30:24;;;;;;;22.73;13.00;;;;;;;-145.18;100.00;46662.34;4978928;28;20307;-71
2022/04/25 05:32:51;;;;;;;26.13;13.17;;;;;;;-145.18;100.00;46660.41;4976271;28;20771;-71
2022/04/25 05:35:22;;;;;;;21.93;13.33;;;;;;;-145.18;100.00;46664.31;4977840;28;20335;-71
2022/04/25 05:37:48;;;;;;;25.93;14.00;;;;;;;-145.18;100.00;46660.41;4957225;28;21138;-70
2022/04/25 05:40:16;;;;;;;27.77;13.90;;;;;;;-145.18;100.00;46660.41;4975612;28;20300;-70
2022/04/25 05:42:42;;;;;;;25.83;14.47;;;;;;;-145.18;100.00;46660.41;4977664;28;20060;-71
2022/04/25 05:45:09;;;;;;;23.63;14.33;;;;;;;-145.18;100.00;46664.31;4978668;28;20651;-70
2022/04/25 05:47:35;;;;;;;25.60;13.80;;;;;;;-145.18;100.00;46662.34;4975388;28;20399;-70
2022/04/25 05:52:46;;;;;;;26.10;14.88;;;;;;;-145.18;100.00;46662.34;4978353;28;20326;-71
2022/04/25 05:55:12;;;;;;;24.80;14.37;;;;;;;-145.18;100.00;46660.41;4976034;28;20042;-71
2022/04/25 05:57:37;;;;;;;22.90;13.93;;;;;;;-145.18;100.00;46666.25;4979801;28;20033;-71
2022/04/25 06:00:07;;;;;;;27.60;15.83;;;;;;;-145.18;100.00;46660.41;4961271;28;20113;-70
2022/04/25 06:02:36;;;;;;;28.10;15.67;;;;;;;-145.18;100.00;46654.53;4978731;28;20750;-71
2022/04/25 06:05:02;;;;;;;28.00;15.97;;;;;;;-145.18;100.00;46644.78;4985177;28;20807;-71
2022/04/25 06:07:28;;;;;;;27.73;14.43;;;;;;;-145.18;100.00;46636.94;4957950;28;20643;-71
2022/04/25 06:09:53;;;;;;;28.10;15.10;;;;;;;-145.18;100.00;46627.19;4980077;28;20030;-71
2022/04/25 06:12:18;;;;;;;25.70;15.50;;;;;;;-145.18;100.00;46650.63;4978446;28;20053;-71
2022/04/25 06:14:44;;;;;;;29.53;16.10;;;;;;;-145.18;100.00;46609.59;4977488;28;20169;-70
2022/04/25 06:17:13;;;;;;;28.07;16.47;;;;;;;-145.18;100.00;46586.16;4976985;28;20030;-70
2022/04/25 06:19:39;;;;;;;26.33;17.00;;;;;;;-145.18;100.00;46568.59;4979112;28;20069;-70
2022/04/25 06:22:04;;;;;;;29.33;15.40;;;;;;;-145.18;100.00;46568.59;4978174;28;20350;-70
2022/04/25 06:24:30;;;;;;;25.30;15.83;;;;;;;-145.18;100.00;46558.81;4974198;28;20049;-71
2022/04/25 06:26:55;;;;;;;27.40;16.83;;;;;;;-145.18;100.00;46564.69;4974301;28;20713;-70
2022/04/25 06:29:21;;;;;;;24.97;16.27;;;;;;;-145.18;100.00;46556.88;4976403;28;20439;-70
2022/04/25 06:31:47;;;;;;;28.47;16.83;;;;;;;-145.18;100.00;46552.97;4980005;28;20031;-71
2022/04/25 06:34:12;;;;;;;28.60;17.73;;;;;;;-145.18;100.00;46545.16;4978157;28;20302;-71
2022/04/25 06:36:37;;;;;;;25.53;17.80;;;;;;;-145.18;100.00;46539.28;4981305;28;20036;-71
2022/04/25 06:39:03;;;;;;;26.57;17.27;;;;;;;-145.18;100.00;46535.38;4979562;28;20042;-71
2022/04/25 06:41:28;;;;;;;33.47;17.73;;;;;;;-145.18;100.00;46531.47;4973077;28;20038;-70
2022/04/25 06:43:54;;;;;;;29.87;18.77;;;;;;;-145.18;100.00;46527.56;4969230;28;20173;-70
2022/04/25 06:46:19;;;;;;;30.23;17.57;;;;;;;-145.18;100.00;46527.56;4975539;28;20467;-70
2022/04/25 06:49:19;;;;;;;31.30;19.03;;;;;;;-145.18;100.00;46523.66;4957149;28;20283;-71
2022/04/25 06:51:30;;;;;;;28.65;18.55;;;;;;;-145.18;100.00;46517.81;4975949;28;20129;-70
2022/04/25 06:53:56;;;;;;;22.43;16.37;;;;;;;-145.18;100.00;46523.66;4922222;28;20064;-70
2022/04/25 06:56:22;;;;;;;27.83;17.97;;;;;;;-145.18;100.00;46525.63;4978179;28;20026;-70
2022/04/25 06:58:47;;;;;;;27.77;17.90;;;;;;;-145.18;100.00;46525.63;4978229;28;20466;-71
2022/04/25 07:01:12;;;;;;;26.13;18.43;;;;;;;-145.18;100.00;46523.66;4959868;28;20176;-70
2022/04/25 07:03:38;;;;;;;30.20;19.47;;;;;;;-145.18;100.00;46523.66;4977464;28;20049;-71
2022/04/25 07:06:03;;;;;;;30.67;18.93;;;;;;;-145.18;100.00;46521.72;4978986;28;20108;-71
2022/04/25 07:08:29;;;;;;;26.63;18.17;;;;;;;-145.18;100.00;46525.63;4968911;28;20231;-70
2022/04/25 07:10:54;;;;;;;29.20;20.47;;;;;;;-145.18;100.00;46523.66;4974557;28;20121;-70
2022/04/25 07:13:20;;;;;;;32.37;20.33;;;;;;;-145.18;100.00;46519.75;4973544;28;20033;-70
2022/04/25 07:15:45;;;;;;;28.07;20.33;;;;;;;-145.18;100.00;46523.66;4978593;28;20185;-71
2022/04/25 07:18:13;;;;;;;29.50;19.67;;;;;;;-145.18;100.00;46521.72;4976414;28;20037;-70
2022/04/25 07:20:38;;;;;;;35.87;21.53;;;;;;;-145.18;100.00;46527.56;4974476;28;20030;-70
2022/04/25 07:28:50;;;;;;;31.27;21.17;;;;;;;-145.18;100.00;46521.72;4964625;28;20631;-70
2022/04/25 07:31:17;;;;;;;30.57;22.67;;;;;;;-145.18;100.00;46519.75;4969724;28;20660;-70
2022/04/25 07:33:46;;;;;;;33.70;19.90;;;;;;;-145.18;100.00;46523.66;4977322;28;20311;-70
2022/04/25 07:36:14;;;;;;;28.90;20.07;;;;;;;-145.18;100.00;46521.72;4966102;28;20531;-70
2022/04/25 07:38:39;;;;;;;28.17;20.13;;;;;;;-145.18;100.00;46529.53;4967841;28;20767;-70
2022/04/25 07:41:07;;;;;;;31.37;21.17;;;;;;;-145.18;100.00;46523.66;4976689;28;20292;-70
2022/04/25 07:43:34;;;;;;;31.67;20.23;;;;;;;-145.18;100.00;46523.66;4970484;28;20073;-71
2022/04/25 07:46:00;;;;;;;27.30;20.00;;;;;;;-145.18;100.00;46531.47;4975492;28;20267;-71
2022/04/25 07:48:26;;;;;;;29.53;18.23;;;;;;;-145.18;100.00;46551.00;4962637;28;20283;-73
2022/04/25 07:50:51;;;;;;;29.77;19.33;;;;;;;-145.18;100.00;46578.34;4969637;28;20283;-71
2022/04/25 07:53:17;;;;;;;30.63;19.80;;;;;;;-145.18;100.00;46617.41;4950512;28;20115;-71
2022/04/25 07:55:42;;;;;;;35.57;22.47;;;;;;;-145.18;100.00;46633.06;4971523;28;20795;-71
2022/04/25 07:58:08;;;;;;;33.20;22.17;;;;;;;-145.18;100.00;46638.91;4975625;28;20035;-70
2022/04/25 08:00:35;;;;;;;33.33;20.97;;;;;;;-145.18;100.00;46638.91;4971690;28;20038;-70
2022/04/25 08:03:01;;;;;;;31.03;20.43;;;;;;;-145.18;100.00;46648.69;4969957;28;20034;-70
2022/04/25 08:05:26;;;;;;;38.17;20.97;;;;;;;-145.18;100.00;46648.69;4974596;28;20315;-70
2022/04/25 08:07:52;;;;;;;30.90;20.87;;;;;;;-145.18;100.00;46652.59;4955096;28;20045;-71
2022/04/25 08:10:17;;;;;;;31.10;20.80;;;;;;;-145.18;100.00;46648.69;4972317;28;20038;-70
2022/04/25 08:18:13;;;;;;;33.70;21.50;;;;;;;-145.18;100.00;46654.53;4956654;28;20925;-70
2022/04/25 08:20:39;;;;;;;32.67;21.00;;;;;;;-145.18;100.00;46644.78;4962082;28;20333;-70
2022/04/25 08:23:09;;;;;;;37.90;22.17;;;;;;;-145.18;100.00;46652.59;4971559;28;20349;-70
2022/04/25 08:25:35;;;;;;;33.13;21.30;;;;;;;-145.18;100.00;46654.53;4964930;28;20319;-71
2022/04/25 08:28:01;;;;;;;31.20;20.97;;;;;;;-145.18;100.00;46648.69;4977712;28;20780;-70
2022/04/25 08:30:28;;;;;;;32.73;21.57;;;;;;;-145.18;100.00;46652.59;4976234;28;20042;-70
2022/04/25 08:32:55;;;;;;;31.30;20.43;;;;;;;-145.18;100.00;46652.59;4976304;28;20856;-72
2022/04/25 08:35:21;;;;;;;33.03;21.30;;;;;;;-145.18;100.00;46648.69;4975673;28;20731;-70
2022/04/25 08:37:47;;;;;;;29.60;20.80;;;;;;;-145.18;100.00;46650.63;4980716;28;20323;-70
2022/04/25 08:40:13;;;;;;;34.17;20.13;;;;;;;-145.18;100.00;46648.69;4971520;28;20482;-71
2022/04/25 08:42:39;;;;;;;33.13;21.37;;;;;;;-145.18;100.00;46654.53;4973352;28;20824;-70
2022/04/25 08:45:06;;;;;;;38.27;22.93;;;;;;;-145.18;100.00;46652.59;4971678;28;20295;-71
2022/04/25 08:47:34;;;;;;;37.07;23.83;;;;;;;-145.18;100.00;46644.78;4979879;28;20466;-70
2022/04/25 08:50:00;;;;;;;31.67;20.40;;;;;;;-145.18;100.00;46650.63;4975742;28;20274;-70
2022/04/25 08:52:27;;;;;;;36.47;21.07;;;;;;;-145.18;100.00;46654.53;4973950;28;20777;-70
2022/04/25 08:54:56;;;;;;;33.50;22.37;;;;;;;-145.18;100.00;46652.59;4975038;28;20115;-70
2022/04/25 08:57:22;;;;;;;35.97;21.40;;;;;;;-145.18;100.00;46652.59;4976805;28;20271;-70
2022/04/25 08:59:49;;;;;;;31.13;20.83;;;;;;;-145.18;100.00;46648.69;4978005;28;20325;-70
2022/04/25 09:02:14;;;;;;;27.63;20.80;;;;;;;-145.18;100.00;46642.81;4977101;28;20282;-71
2022/04/25 09:04:39;;;;;;;32.23;19.50;;;;;;;-145.18;100.00;46648.69;4979575;28;20664;-70
2022/04/25 09:07:05;;;;;;;26.87;17.87;;;;;;;-145.18;100.00;46650.63;4973893;28;20169;-70
2022/04/25 09:09:30;;;;;;;25.77;15.97;;;;;;;-145.18;100.00;46648.69;4974887;28;20565;-70
2022/04/25 09:12:11;;;;;;;22.27;15.40;;;;;;;-145.18;100.00;46642.81;4962235;28;20286;-70
2022/04/25 09:14:39;;;;;;;24.40;15.87;;;;;;;-145.18;100.00;46640.88;4976326;28;20416;-70
2022/04/25 09:17:05;;;;;;;22.40;16.63;;;;;;;-145.18;100.00;46644.78;4974181;28;20252;-70
2022/04/25 09:19:31;;;;;;;19.83;15.40;;;;;;;-145.18;100.00;46642.81;4973113;28;20534;-70
2022/04/25 09:21:57;;;;;;;21.13;15.83;;;;;;;-145.18;100.00;46642.81;4978511;28;21020;-71
2022/04/25 09:24:23;;;;;;;21.10;16.33;;;;;;;-145.18;100.00;46638.91;4976296;28;20296;-70
2022/04/25 09:26:52;;;;;;;19.17;15.47;;;;;;;-145.18;100.00;46638.91;4978261;28;20054;-70
2022/04/25 09:29:25;;;;;;;20.37;14.77;;;;;;;-145.18;100.00;46642.81;4974380;28;20276;-70
2022/04/25 09:31:50;;;;;;;17.07;13.37;;;;;;;-145.18;100.00;46640.88;4974223;28;20934;-70
2022/04/25 09:34:59;;;;;;;19.50;14.50;;;;;;;-145.18;100.00;46640.88;4954071;28;20275;-70
2022/04/25 09:37:02;;;;;;;18.60;13.43;;;;;;;-145.18;100.00;46636.94;4976718;28;20029;-70
2022/04/25 09:39:28;;;;;;;18.53;14.27;;;;;;;-145.18;100.00;46640.88;4972758;28;20129;-70
2022/04/25 09:41:53;;;;;;;17.97;13.70;;;;;;;-145.18;100.00;46642.81;4976064;28;20018;-70
2022/04/25 09:44:19;;;;;;;18.47;13.60;;;;;;;-145.18;100.00;46631.09;4984836;28;20357;-70
2022/04/25 09:46:47;;;;;;;19.10;13.93;;;;;;;-145.18;100.00;46638.91;4976520;28;20265;-70
2022/04/25 09:49:21;;;;;;;21.37;15.93;;;;;;;-145.18;100.00;46644.78;4975675;28;20026;-70
2022/04/25 09:52:03;;;;;;;17.87;14.47;;;;;;;-145.18;100.00;46646.72;4981702;28;20349;-70
2022/04/25 09:54:29;;;;;;;19.23;14.63;;;;;;;-145.18;100.00;46640.88;4975411;28;20355;-70
2022/04/25 09:56:54;;;;;;;20.27;15.47;;;;;;;-145.18;100.00;46638.91;4976652;28;20495;-70
2022/04/25 09:59:21;;;;;;;19.40;15.57;;;;;;;-145.18;100.00;46640.88;4984725;28;20045;-70
2022/04/25 10:02:00;;;;;;;20.70;15.17;;;;;;;-145.18;100.00;46633.06;4973888;28;20026;-70
2022/04/25 10:04:34;;;;;;;21.43;14.97;;;;;;;-145.18;100.00;46627.19;4978689;28;20287;-70
2022/04/25 10:07:04;;;;;;;20.03;13.73;;;;;;;-145.18;100.00;46613.50;4975671;28;20271;-71
2022/04/25 10:09:31;;;;;;;19.17;14.23;;;;;;;-145.18;100.00;46593.97;4975680;28;20306;-71
2022/04/25 10:12:05;;;;;;;19.27;14.03;;;;;;;-145.18;100.00;46578.34;4977777;28;20276;-70
2022/04/25 10:14:30;;;;;;;21.00;14.20;;;;;;;-145.18;100.00;46586.16;4980463;28;20274;-73
2022/04/25 10:16:57;;;;;;;18.67;13.53;;;;;;;-145.18;100.00;46554.91;4974279;28;20276;-71
2022/04/25 10:19:24;;;;;;;17.30;13.63;;;;;;;-145.18;100.00;46527.56;4980239;28;20084;-71
2022/04/25 10:21:52;;;;;;;18.73;14.50;;;;;;;-145.18;100.00;46525.63;4978599;28;20631;-70
2022/04/25 10:24:18;;;;;;;20.43;14.50;;;;;;;-145.18;100.00;46527.56;4982410;28;20756;-70
2022/04/25 10:26:46;;;;;;;20.20;14.20;;;;;;;-145.18;100.00;46533.44;4979732;28;20276;-70
2022/04/25 10:29:17;;;;;;;18.70;13.27;;;;;;;-145.18;100.00;46525.63;4978020;28;20783;-71
2022/04/25 10:31:45;;;;;;;19.73;13.87;;;;;;;-145.18;100.00;46523.66;4978970;28;20278;-70
2022/04/25 10:34:14;;;;;;;18.87;12.40;;;;;;;-145.18;100.00;46527.56;4977938;28;20735;-70
2022/04/25 10:36:39;;;;;;;17.63;12.40;;;;;;;-145.18;100.00;46527.56;4982102;28;20288;-71
2022/04/25 10:39:27;;;;;;;16.77;12.53;;;;;;;-145.18;100.00;46527.56;4976571;28;20272;-71
2022/04/25 10:44:36;;;;;;;21.67;14.30;;;;;;;-145.18;100.00;46543.19;4981004;28;20338;-71
2022/04/25 10:47:05;;;;;;;18.30;13.70;;;;;;;-145.18;100.00;46560.78;4982668;28;20272;-71
2022/04/25 10:49:33;;;;;;;20.63;13.60;;;;;;;-145.18;100.00;46576.41;4978836;28;20030;-72
2022/04/25 10:51:59;;;;;;;20.03;14.17;;;;;;;-145.18;100.00;46570.53;4962111;28;20298;-72
2022/04/25 10:54:28;;;;;;;20.03;14.47;;;;;;;-145.18;100.00;46558.81;4979805;28;20271;-71
2022/04/25 10:57:17;;;;;;;19.93;14.73;;;;;;;-145.18;100.00;46564.69;4980220;28;20280;-71
2022/04/25 10:59:42;;;;;;;21.50;14.57;;;;;;;-145.18;100.00;46558.81;4971699;28;20837;-71
2022/04/25 11:02:24;;;;;;;21.60;14.00;;;;;;;-145.18;100.00;46558.81;4982777;28;20268;-71
2022/04/25 11:05:11;;;;;;;26.37;16.67;;;;;;;-145.18;100.00;46566.63;4972156;28;20045;-71
2022/04/25 11:07:38;;;;;;;23.90;16.63;;;;;;;-145.18;100.00;46566.63;4973566;28;20798;-71
2022/04/25 11:10:05;;;;;;;24.60;16.03;;;;;;;-145.18;100.00;46554.91;4975304;28;20270;-71
2022/04/25 11:12:56;;;;;;;25.93;15.83;;;;;;;-145.18;100.00;46554.91;4974123;28;20283;-71
2022/04/25 11:15:42;;;;;;;25.47;15.93;;;;;;;-145.18;100.00;46531.47;4978546;28;20688;-72
2022/04/25 11:18:38;;;;;;;26.55;16.58;;;;;;;-145.18;100.00;46525.63;4975072;28;20272;-71